www.cux-wetter.de
Wetterdaten: Freitag, 31.01.2014
Datum Zeit Temp. A. Feuchte A. Luftdruck Regen Wind Richtung Richtung Sonnenschein Solar Taupunkt Windchill Windben
31.01.2014 00:00 -3,4 C 83 % 1011,5 hPa 0,0 l/m 20,0 km/h (4 Bft) S-SO 150 0 min 0 W/m -5,9 C -14,0 C 20,0 km/h (4 Bft)
31.01.2014 00:15 -3,4 C 83 % 1011,5 hPa 0,0 l/m 19,2 km/h (3 Bft) S-SO 150 0 min 0 W/m -5,9 C -13,6 C 19,2 km/h (3 Bft)
31.01.2014 00:30 -3,4 C 83 % 1011,5 hPa 0,0 l/m 19,4 km/h (3 Bft) SO 125 0 min 0 W/m -5,9 C -13,7 C 19,4 km/h (3 Bft)
31.01.2014 00:45 -3,5 C 83 % 1011,5 hPa 0,0 l/m 16,5 km/h (3 Bft) SO 145 0 min 0 W/m -6,0 C -12,2 C 16,5 km/h (3 Bft)
31.01.2014 01:00 -3,5 C 83 % 1010,5 hPa 0,0 l/m 22,4 km/h (4 Bft) SO 140 0 min 0 W/m -6,0 C -15,3 C 22,4 km/h (4 Bft)
31.01.2014 01:15 -3,6 C 83 % 1011,5 hPa 0,0 l/m 20,8 km/h (4 Bft) S-SO 150 0 min 0 W/m -6,1 C -14,7 C 20,8 km/h (4 Bft)
31.01.2014 01:30 -3,7 C 84 % 1010,5 hPa 0,0 l/m 27,1 km/h (5 Bft) SO 140 0 min 0 W/m -6,0 C -17,6 C 27,1 km/h (5 Bft)
31.01.2014 01:45 -3,6 C 84 % 1010,5 hPa 0,0 l/m 26,5 km/h (4 Bft) S-SO 160 0 min 0 W/m -5,9 C -17,2 C 26,5 km/h (4 Bft)
31.01.2014 02:00 -3,6 C 84 % 1010,5 hPa 0,0 l/m 24,9 km/h (4 Bft) S-SO 150 0 min 0 W/m -5,9 C -16,6 C 24,9 km/h (4 Bft)
31.01.2014 02:15 -3,7 C 84 % 1010,5 hPa 0,0 l/m 23,3 km/h (4 Bft) SO 125 0 min 0 W/m -6,0 C -16,0 C 23,3 km/h (4 Bft)
31.01.2014 02:30 -3,8 C 84 % 1010,5 hPa 0,0 l/m 28,5 km/h (5 Bft) SO 145 0 min 0 W/m -6,1 C -18,2 C 28,5 km/h (5 Bft)
31.01.2014 02:45 -3,8 C 84 % 1011,5 hPa 0,0 l/m 21,8 km/h (4 Bft) O-SO 110 0 min 0 W/m -6,1 C -15,4 C 21,8 km/h (4 Bft)
31.01.2014 03:00 -3,8 C 84 % 1011,5 hPa 0,0 l/m 22,1 km/h (4 Bft) S-SO 150 0 min 0 W/m -6,1 C -15,6 C 22,1 km/h (4 Bft)
31.01.2014 03:15 -3,8 C 84 % 1010,5 hPa 0,0 l/m 24,4 km/h (4 Bft) SO 135 0 min 0 W/m -6,1 C -16,6 C 24,4 km/h (4 Bft)
31.01.2014 03:30 -3,9 C 84 % 1010,5 hPa 0,0 l/m 20,1 km/h (4 Bft) SO 140 0 min 0 W/m -6,2 C -14,7 C 20,1 km/h (4 Bft)
31.01.2014 03:45 -3,9 C 84 % 1011,5 hPa 0,0 l/m 20,8 km/h (4 Bft) SO 145 0 min 0 W/m -6,2 C -15,1 C 20,8 km/h (4 Bft)
31.01.2014 04:00 -3,8 C 85 % 1010,5 hPa 0,0 l/m 22,3 km/h (4 Bft) SO 145 0 min 0 W/m -5,9 C -15,7 C 22,3 km/h (4 Bft)
31.01.2014 04:15 -3,6 C 85 % 1010,5 hPa 0,0 l/m 25,1 km/h (4 Bft) S-SO 150 0 min 0 W/m -5,7 C -16,6 C 25,1 km/h (4 Bft)
31.01.2014 04:30 -3,4 C 86 % 1010,5 hPa 0,0 l/m 18,6 km/h (3 Bft) SO 135 0 min 0 W/m -5,4 C -13,3 C 18,6 km/h (3 Bft)
31.01.2014 04:45 -3,4 C 86 % 1010,5 hPa 0,0 l/m 16,8 km/h (3 Bft) S-SO 155 0 min 0 W/m -5,4 C -12,2 C 16,8 km/h (3 Bft)
31.01.2014 05:00 -3,4 C 86 % 1010,5 hPa 0,0 l/m 17,5 km/h (3 Bft) SO 130 0 min 0 W/m -5,4 C -12,7 C 17,5 km/h (3 Bft)
31.01.2014 05:15 -3,1 C 86 % 1010,5 hPa 0,0 l/m 19,3 km/h (3 Bft) SO 135 0 min 0 W/m -5,1 C -13,3 C 19,3 km/h (3 Bft)
31.01.2014 05:30 -3,0 C 86 % 1010,5 hPa 0,0 l/m 17,6 km/h (3 Bft) O-SO 120 0 min 0 W/m -5,0 C -12,2 C 17,6 km/h (3 Bft)
31.01.2014 05:45 -2,8 C 86 % 1010,5 hPa 0,0 l/m 16,0 km/h (3 Bft) SO 125 0 min 0 W/m -4,8 C -11,0 C 16,0 km/h (3 Bft)
31.01.2014 06:00 -2,8 C 86 % 1010,5 hPa 0,0 l/m 20,3 km/h (4 Bft) SO 135 0 min 0 W/m -4,8 C -13,4 C 20,3 km/h (4 Bft)
31.01.2014 06:15 -2,8 C 86 % 1009,5 hPa 0,0 l/m 20,4 km/h (4 Bft) SO 130 0 min 0 W/m -4,8 C -13,4 C 20,4 km/h (4 Bft)
31.01.2014 06:30 -2,8 C 86 % 1009,5 hPa 0,0 l/m 20,3 km/h (4 Bft) O-SO 105 0 min 0 W/m -4,8 C -13,4 C 20,3 km/h (4 Bft)
31.01.2014 06:45 -2,8 C 86 % 1009,5 hPa 0,0 l/m 17,6 km/h (3 Bft) SO 125 0 min 0 W/m -4,8 C -12,0 C 17,6 km/h (3 Bft)
31.01.2014 07:00 -2,7 C 86 % 1009,5 hPa 0,0 l/m 15,7 km/h (3 Bft) SO 125 0 min 0 W/m -4,7 C -10,7 C 15,7 km/h (3 Bft)
31.01.2014 07:15 -2,7 C 86 % 1009,5 hPa 0,0 l/m 15,9 km/h (3 Bft) O-SO 105 0 min 0 W/m -4,7 C -10,8 C 15,9 km/h (3 Bft)
31.01.2014 07:30 -2,7 C 86 % 1009,5 hPa 0,0 l/m 23,3 km/h (4 Bft) SO 130 0 min 0 W/m -4,7 C -14,7 C 23,3 km/h (4 Bft)
31.01.2014 07:45 -2,7 C 86 % 1009,5 hPa 0,0 l/m 22,4 km/h (4 Bft) SO 130 0 min 0 W/m -4,7 C -14,3 C 22,4 km/h (4 Bft)
31.01.2014 08:00 -2,6 C 85 % 1009,5 hPa 0,0 l/m 19,9 km/h (4 Bft) O-SO 120 0 min 0 W/m -4,8 C -12,9 C 19,9 km/h (4 Bft)
31.01.2014 08:15 -2,6 C 85 % 1009,5 hPa 0,0 l/m 19,6 km/h (3 Bft) SO 125 0 min 0 W/m -4,8 C -12,8 C 19,6 km/h (3 Bft)
31.01.2014 08:30 -2,5 C 85 % 1009,5 hPa 0,0 l/m 14,2 km/h (3 Bft) SO 135 0 min 0 W/m -4,7 C -9,5 C 14,2 km/h (3 Bft)
31.01.2014 08:45 -2,5 C 85 % 1009,5 hPa 0,0 l/m 17,6 km/h (3 Bft) SO 125 0 min 0 W/m -4,7 C -11,6 C 17,6 km/h (3 Bft)
31.01.2014 09:00 -2,4 C 85 % 1009,5 hPa 0,0 l/m 16,3 km/h (3 Bft) O-SO 120 0 min 0 W/m -4,6 C -10,7 C 16,3 km/h (3 Bft)
31.01.2014 09:15 -2,4 C 85 % 1009,5 hPa 0,0 l/m 14,7 km/h (3 Bft) SO 125 0 min 0 W/m -4,6 C -9,7 C 14,7 km/h (3 Bft)
31.01.2014 09:30 -2,3 C 84 % 1009,5 hPa 0,0 l/m 13,1 km/h (3 Bft) SO 135 0 min 0 W/m -4,6 C -8,5 C 13,1 km/h (3 Bft)
31.01.2014 09:45 -2,2 C 84 % 1009,5 hPa 0,0 l/m 11,7 km/h (2 Bft) S-SO 155 0 min 0 W/m -4,5 C -7,3 C 11,7 km/h (2 Bft)
31.01.2014 10:00 -2,1 C 84 % 1009,5 hPa 0,0 l/m 12,2 km/h (2 Bft) SO 140 0 min 0 W/m -4,4 C -7,6 C 12,2 km/h (2 Bft)
31.01.2014 10:15 -2,0 C 84 % 1009,5 hPa 0,0 l/m 12,9 km/h (3 Bft) SO 135 0 min 0 W/m -4,3 C -8,0 C 12,9 km/h (3 Bft)
31.01.2014 10:30 -1,8 C 84 % 1009,5 hPa 0,0 l/m 13,1 km/h (3 Bft) SO 135 0 min 0 W/m -4,1 C -7,9 C 13,1 km/h (3 Bft)
31.01.2014 10:45 -1,7 C 83 % 1009,5 hPa 0,0 l/m 12,3 km/h (2 Bft) SO 140 0 min 0 W/m -4,2 C -7,2 C 12,3 km/h (2 Bft)
31.01.2014 11:00 -1,4 C 82 % 1008,5 hPa 0,0 l/m 14,9 km/h (3 Bft) O-SO 120 0 min 0 W/m -4,1 C -8,6 C 14,9 km/h (3 Bft)
31.01.2014 11:15 -1,4 C 82 % 1008,5 hPa 0,0 l/m 15,5 km/h (3 Bft) SO 130 0 min 0 W/m -4,1 C -9,0 C 15,5 km/h (3 Bft)
31.01.2014 11:30 -1,1 C 81 % 1008,5 hPa 0,0 l/m 16,0 km/h (3 Bft) SO 135 0 min 0 W/m -3,9 C -8,9 C 16,0 km/h (3 Bft)
31.01.2014 11:45 -1,2 C 81 % 1008,5 hPa 0,0 l/m 10,6 km/h (2 Bft) SO 135 0 min 0 W/m -4,0 C -5,3 C 10,6 km/h (2 Bft)
31.01.2014 12:00 -1,0 C 81 % 1008,5 hPa 0,0 l/m 11,1 km/h (2 Bft) SO 135 0 min 0 W/m -3,8 C -5,5 C 11,1 km/h (2 Bft)
31.01.2014 12:15 -0,9 C 80 % 1007,5 hPa 0,0 l/m 13,6 km/h (3 Bft) SO 145 0 min 0 W/m -3,9 C -7,2 C 13,6 km/h (3 Bft)
31.01.2014 12:30 -0,9 C 80 % 1007,5 hPa 0,0 l/m 15,9 km/h (3 Bft) S-SO 150 0 min 0 W/m -3,9 C -8,6 C 15,9 km/h (3 Bft)
31.01.2014 12:45 -0,8 C 80 % 1007,5 hPa 0,0 l/m 13,5 km/h (3 Bft) S-SO 150 0 min 0 W/m -3,8 C -7,0 C 13,5 km/h (3 Bft)
31.01.2014 13:00 -0,9 C 80 % 1007,5 hPa 0,0 l/m 14,9 km/h (3 Bft) S 170 0 min 0 W/m -3,9 C -8,0 C 14,9 km/h (3 Bft)
31.01.2014 13:15 -0,8 C 79 % 1007,5 hPa 0,0 l/m 18,4 km/h (3 Bft) S 185 0 min 0 W/m -4,0 C -9,9 C 18,4 km/h (3 Bft)
31.01.2014 13:30 -0,8 C 79 % 1007,5 hPa 0,0 l/m 15,8 km/h (3 Bft) S-SW 200 0 min 0 W/m -4,0 C -8,4 C 15,8 km/h (3 Bft)
31.01.2014 13:45 -0,7 C 79 % 1007,5 hPa 0,0 l/m 16,1 km/h (3 Bft) S 185 0 min 0 W/m -3,9 C -8,5 C 16,1 km/h (3 Bft)
31.01.2014 14:00 -0,7 C 79 % 1007,5 hPa 0,0 l/m 15,0 km/h (3 Bft) S-SW 210 0 min 0 W/m -3,9 C -7,8 C 15,0 km/h (3 Bft)
31.01.2014 14:15 -0,8 C 79 % 1007,5 hPa 0,0 l/m 14,3 km/h (3 Bft) S-SW 205 0 min 0 W/m -4,0 C -7,5 C 14,3 km/h (3 Bft)
31.01.2014 14:30 -0,8 C 79 % 1007,5 hPa 0,0 l/m 14,7 km/h (3 Bft) S-SW 195 0 min 0 W/m -4,0 C -7,8 C 14,7 km/h (3 Bft)
31.01.2014 14:45 -0,6 C 79 % 1007,5 hPa 0,0 l/m 15,7 km/h (3 Bft) S 185 0 min 0 W/m -3,8 C -8,1 C 15,7 km/h (3 Bft)
31.01.2014 15:00 -0,6 C 79 % 1007,5 hPa 0,0 l/m 12,1 km/h (2 Bft) S-SW 200 0 min 0 W/m -3,8 C -5,8 C 12,1 km/h (2 Bft)
31.01.2014 15:15 -0,6 C 79 % 1007,5 hPa 0,0 l/m 14,6 km/h (3 Bft) S-SW 200 0 min 0 W/m -3,8 C -7,5 C 14,6 km/h (3 Bft)
31.01.2014 15:30 -0,5 C 79 % 1007,5 hPa 0,0 l/m 13,4 km/h (3 Bft) S 170 0 min 0 W/m -3,7 C -6,6 C 13,4 km/h (3 Bft)
31.01.2014 15:45 -0,5 C 78 % 1006,5 hPa 0,0 l/m 13,2 km/h (3 Bft) S 185 0 min 0 W/m -3,9 C -6,4 C 13,2 km/h (3 Bft)
31.01.2014 16:00 -0,5 C 79 % 1006,5 hPa 0,0 l/m 8,8 km/h (2 Bft) S 180 0 min 0 W/m -3,7 C -2,9 C 8,8 km/h (2 Bft)
31.01.2014 16:15 -0,5 C 78 % 1006,5 hPa 0,0 l/m 7,6 km/h (2 Bft) S-SO 165 0 min 0 W/m -3,9 C -1,8 C 7,6 km/h (2 Bft)
31.01.2014 16:30 -0,7 C 78 % 1006,5 hPa 0,0 l/m 10,7 km/h (2 Bft) S-SO 160 0 min 0 W/m -4,0 C -4,8 C 10,7 km/h (2 Bft)
31.01.2014 16:45 -0,9 C 79 % 1006,5 hPa 0,0 l/m 10,8 km/h (2 Bft) S-SO 165 0 min 0 W/m -4,1 C -5,1 C 10,8 km/h (2 Bft)
31.01.2014 17:00 -1,0 C 79 % 1006,5 hPa 0,0 l/m 10,1 km/h (2 Bft) S-SO 165 0 min 0 W/m -4,2 C -4,6 C 10,1 km/h (2 Bft)
31.01.2014 17:15 -1,2 C 79 % 1006,5 hPa 0,0 l/m 8,5 km/h (2 Bft) S-SO 160 0 min 0 W/m -4,4 C -3,4 C 8,5 km/h (2 Bft)
31.01.2014 17:30 -1,3 C 79 % 1006,5 hPa 0,0 l/m 6,7 km/h (2 Bft) S 180 0 min 0 W/m -4,5 C -1,6 C 6,7 km/h (2 Bft)
31.01.2014 17:45 -1,4 C 80 % 1006,5 hPa 0,0 l/m 11,0 km/h (2 Bft) S 170 0 min 0 W/m -4,4 C -5,8 C 11,0 km/h (2 Bft)
31.01.2014 18:00 -1,6 C 80 % 1006,5 hPa 0,0 l/m 9,8 km/h (2 Bft) S 170 0 min 0 W/m -4,6 C -5,0 C 9,8 km/h (2 Bft)
31.01.2014 18:15 -1,7 C 80 % 1006,5 hPa 0,0 l/m 13,2 km/h (3 Bft) S 170 0 min 0 W/m -4,7 C -7,8 C 13,2 km/h (3 Bft)
31.01.2014 18:30 -1,8 C 80 % 1006,5 hPa 0,0 l/m 11,5 km/h (2 Bft) S-SO 155 0 min 0 W/m -4,8 C -6,7 C 11,5 km/h (2 Bft)
31.01.2014 18:45 -1,8 C 80 % 1005,5 hPa 0,0 l/m 10,1 km/h (2 Bft) S 170 0 min 0 W/m -4,8 C -5,5 C 10,1 km/h (2 Bft)
31.01.2014 19:00 -1,9 C 81 % 1005,5 hPa 0,0 l/m 12,2 km/h (2 Bft) S 175 0 min 0 W/m -4,7 C -7,3 C 12,2 km/h (2 Bft)
31.01.2014 19:15 -2,0 C 81 % 1005,5 hPa 0,0 l/m 15,4 km/h (3 Bft) S 185 0 min 0 W/m -4,8 C -9,7 C 15,4 km/h (3 Bft)
31.01.2014 19:30 -1,9 C 81 % 1005,5 hPa 0,0 l/m 14,0 km/h (3 Bft) S 180 0 min 0 W/m -4,7 C -8,6 C 14,0 km/h (3 Bft)
31.01.2014 19:45 -1,9 C 82 % 1005,5 hPa 0,0 l/m 16,2 km/h (3 Bft) S 180 0 min 0 W/m -4,6 C -10,0 C 16,2 km/h (3 Bft)
31.01.2014 20:00 -1,9 C 82 % 1005,5 hPa 0,0 l/m 16,2 km/h (3 Bft) S 185 0 min 0 W/m -4,6 C -10,0 C 16,2 km/h (3 Bft)
31.01.2014 20:15 -1,8 C 82 % 1004,5 hPa 0,0 l/m 19,4 km/h (3 Bft) S 190 0 min 0 W/m -4,5 C -11,7 C 19,4 km/h (3 Bft)
31.01.2014 20:30 -1,8 C 82 % 1004,5 hPa 0,0 l/m 17,5 km/h (3 Bft) S 180 0 min 0 W/m -4,5 C -10,6 C 17,5 km/h (3 Bft)
31.01.2014 20:45 -1,8 C 82 % 1004,5 hPa 0,0 l/m 18,7 km/h (3 Bft) S 185 0 min 0 W/m -4,5 C -11,3 C 18,7 km/h (3 Bft)
31.01.2014 21:00 -1,8 C 82 % 1004,5 hPa 0,0 l/m 16,9 km/h (3 Bft) S 185 0 min 0 W/m -4,5 C -10,3 C 16,9 km/h (3 Bft)
31.01.2014 21:15 -1,8 C 82 % 1004,5 hPa 0,0 l/m 15,9 km/h (3 Bft) S 185 0 min 0 W/m -4,5 C -9,7 C 15,9 km/h (3 Bft)
31.01.2014 21:30 -1,8 C 83 % 1004,5 hPa 0,0 l/m 15,5 km/h (3 Bft) S 190 0 min 0 W/m -4,3 C -9,5 C 15,5 km/h (3 Bft)
31.01.2014 21:45 -1,8 C 83 % 1003,5 hPa 0,0 l/m 18,0 km/h (3 Bft) S 185 0 min 0 W/m -4,3 C -10,9 C 18,0 km/h (3 Bft)
31.01.2014 22:00 -1,6 C 83 % 1004,5 hPa 0,0 l/m 16,2 km/h (3 Bft) S 180 0 min 0 W/m -4,1 C -9,7 C 16,2 km/h (3 Bft)
31.01.2014 22:15 -1,5 C 83 % 1003,5 hPa 0,0 l/m 14,0 km/h (3 Bft) S 180 0 min 0 W/m -4,0 C -8,1 C 14,0 km/h (3 Bft)
31.01.2014 22:30 -1,5 C 83 % 1003,5 hPa 0,0 l/m 15,3 km/h (3 Bft) S 175 0 min 0 W/m -4,0 C -9,0 C 15,3 km/h (3 Bft)
31.01.2014 22:45 -1,4 C 83 % 1003,5 hPa 0,0 l/m 15,5 km/h (3 Bft) S 180 0 min 0 W/m -3,9 C -9,0 C 15,5 km/h (3 Bft)
31.01.2014 23:00 -1,4 C 83 % 1003,5 hPa 0,0 l/m 16,5 km/h (3 Bft) S 180 0 min 0 W/m -3,9 C -9,6 C 16,5 km/h (3 Bft)
31.01.2014 23:15 -1,2 C 83 % 1002,5 hPa 0,0 l/m 20,1 km/h (4 Bft) S 180 0 min 0 W/m -3,7 C -11,2 C 20,1 km/h (4 Bft)
31.01.2014 23:30 -1,2 C 83 % 1002,5 hPa 0,0 l/m 14,9 km/h (3 Bft) S 180 0 min 0 W/m -3,7 C -8,4 C 14,9 km/h (3 Bft)
31.01.2014 23:45 -1,0 C 83 % 1002,5 hPa 0,0 l/m 16,6 km/h (3 Bft) S 180 0 min 0 W/m -3,5 C -9,1 C 16,6 km/h (3 Bft)
_ Min-Zeit 03:30 15:45 23:15 - 17:30 - - - - 03:30 02:30 17:30
Minimum _ -3,9 C 78 % 1002,5 hPa - 6,7 km/h (2 Bft) - - - - -6,2 C -18,2 C 6,7 km/h (2 Bft)
_ Max-Zeit 15:30 04:30 00:00 00:00 02:30 - - 00:00 00:00 23:45 17:30 02:30
Maximum _ -0,5 C 86 % 1011,5 hPa 0,0 l/m 28,5 km/h
SO (5 Bft)
- - 0 min 0 W/m -3,5 C -1,6 C 28,5 km/h
S-SO (5 Bft)
Durchschnitt _ -2,1 C 82 % 1007,9 hPa #0,0 l/m 16,4 km/h (3 Bft) SO - #0 min. 0 W/m -4,6 C -10,1 C 16,4 km/h (3 Bft)
copyright by Holger Just